Flight Track Log - Related Links

Times and Time Zones

All times are in EDT time to prevent confusion due to time zone crossing. See the LOT751 flight status page for this flight to view local times or setup timezone preferences in your user account.

Time Position Orientation Groundspeed Altitude Reporting Facility
EDT Latitude Longitude Course Direction KTS MPH feet Rate Location/Type
Tue 05:41:08 AM 52.1836 20.9512 331° Northwest 160 184 900  Level FlightAware ADS-B (EPWA / WAW)
Tue 05:41:23 AM 52.1937 20.9423 333° Northwest 160 184 1,500 2,200 Climbing FlightAware ADS-B (EPWA / WAW)
Tue 05:41:38 AM 52.2032 20.9346 333° Northwest 161 185 2,000 1,800 Climbing FlightAware ADS-B (EPWA / WAW)
Tue 05:41:53 AM 52.2136 20.9257 331° Northwest 166 191 2,400 1,615 Climbing FlightAware ADS-B (EPWA / WAW)
Tue 05:42:04 AM 52.2195 20.9184 310° West 169 194 2,700 1,742 Climbing FlightAware ADS-B
Tue 05:42:24 AM 52.2266 20.8944 281° West 174 200 3,300 1,826 Climbing FlightAware ADS-B (EPWA / WAW)
Tue 05:42:27 AM 52.2267 20.8939 275° West 177 204 3,400 1,846 Climbing FlightAware ADS-B
Tue 05:42:37 AM 52.2267 20.8772 264° West 177 204 3,700 1,615 Climbing FlightAware ADS-B
Tue 05:42:53 AM 52.2246 20.8542 261° West 190 219 4,100 938 Climbing FlightAware ADS-B (EPWA / WAW)
Tue 05:43:09 AM 52.2221 20.8315 260° West 214 246 4,200 529 Climbing FlightAware ADS-B (EPWA / WAW)
Tue 05:43:27 AM 52.2189 20.8010 261° West 239 275 4,400 1,469 Climbing FlightAware ADS-B
Tue 05:43:58 AM 52.2086 20.7462 232° Southwest 253 291 5,400 2,049 Climbing FlightAware ADS-B
Tue 05:44:08 AM 52.2004 20.7333 216° Southwest 255 293 5,800 2,538 Climbing FlightAware ADS-B
Tue 05:44:24 AM 52.1851 20.7168 214° Southwest 252 290 6,500 2,571 Climbing FlightAware ADS-B (EPWA / WAW)
Tue 05:44:29 AM 52.1797 20.7116 208° Southwest 251 289 6,700 2,500 Climbing FlightAware ADS-B
Tue 05:44:36 AM 52.1716 20.7066 196° South 252 290 7,000 1,412 Climbing FlightAware ADS-B (EPWA / WAW)
Tue 05:44:46 AM 52.1612 20.7054 171° South 260 299 7,100 1,125 Climbing FlightAware ADS-B
Tue 05:45:08 AM 52.1341 20.7193 158° South 270 311 7,600 1,784 Climbing FlightAware ADS-B (EPWA / WAW)
Tue 05:45:23 AM 52.1170 20.7320 150° Southeast 270 311 8,200 2,545 Climbing FlightAware ADS-B (EPWA / WAW)
Tue 05:45:41 AM 52.0994 20.7526 139° Southeast 269 310 9,000 2,432 Climbing FlightAware ADS-B
Tue 05:46:00 AM 52.0823 20.7790 136° Southeast 272 313 9,700 1,837 Climbing FlightAware ADS-B
Tue 05:46:30 AM 52.0539 20.8227 136° Southeast 291 335 10,500 1,588 Climbing FlightAware ADS-B
Tue 05:47:08 AM 52.0146 20.8827 136° Southeast 310 357 11,500 1,765 Climbing FlightAware ADS-B (EPWA / WAW)
Tue 05:47:38 AM 51.9833 20.9309 136° Southeast 317 365 12,500 1,925 Climbing FlightAware ADS-B (EPWA / WAW)
Tue 05:48:01 AM 51.9616 20.9716 125° Southeast 323 372 13,200 1,800 Climbing FlightAware ADS-B
Tue 05:48:38 AM 51.9336 21.0515 119° Southeast 333 383 14,300 1,701 Climbing FlightAware ADS-B (EPWA / WAW)
Tue 05:49:08 AM 51.9129 21.1120 118° Southeast 336 387 15,100 1,846 Climbing FlightAware ADS-B (CAD4 / YZZ)
Tue 05:49:43 AM 51.8847 21.1950 119° Southeast 346 398 16,300 1,890 Climbing FlightAware ADS-B
Tue 05:50:21 AM 51.8543 21.2836 119° Southeast 354 407 17,400 1,565 Climbing FlightAware ADS-B
Tue 05:50:52 AM 51.8337 21.3434 118° Southeast 357 411 18,100 1,645 Climbing FlightAware ADS-B (CAD4 / YZZ)
Tue 05:51:23 AM 51.8041 21.4290 119° Southeast 364 419 19,100 2,000 Climbing FlightAware ADS-B (EPWA / WAW)
Tue 05:51:28 AM 51.8001 21.4410 118° Southeast 367 422 19,300 1,571 Climbing FlightAware ADS-B (EPWA / WAW)
Tue 05:52:05 AM 51.7738 21.5170 119° Southeast 373 429 20,200 1,360 Climbing FlightAware ADS-B
Tue 05:52:43 AM 51.7423 21.6074 119° Southeast 384 442 21,000 1,429 Climbing FlightAware ADS-B
Tue 05:52:47 AM 51.7338 21.6325 118° Southeast 384 442 21,200 1,875 Climbing FlightAware ADS-B (EPWA / WAW)
Tue 05:52:59 AM 51.7232 21.6636 118° Southeast 384 442 21,500 1,556 Climbing FlightAware ADS-B (EPWA / WAW)
Tue 05:53:41 AM 51.6880 21.7644 120° Southeast 387 445 22,600 1,407 Climbing FlightAware ADS-B
Tue 05:54:20 AM 51.6579 21.8500 119° Southeast 399 459 23,400 1,151 Climbing FlightAware ADS-B
Tue 05:54:54 AM 51.6210 21.9551 120° Southeast 407 468 24,000 1,054 Climbing FlightAware ADS-B
Tue 05:55:34 AM 51.5859 22.0551 119° Southeast 414 476 24,700 963 Climbing FlightAware ADS-B (CAD4 / YZZ)
Tue 05:56:15 AM 51.5465 22.1663 119° Southeast 423 487 25,300 1,099 Climbing FlightAware ADS-B (CAD4 / YZZ)
Tue 05:56:45 AM 51.5159 22.2517 119° Southeast 427 491 26,000 1,105 Climbing FlightAware ADS-B (CAD4 / YZZ)
Tue 05:57:31 AM 51.4699 22.3810 119° Southeast 435 501 26,700 868 Climbing FlightAware ADS-B (CAD4 / YZZ)
Tue 05:58:01 AM 51.4394 22.4657 120° Southeast 442 509 27,100 885 Climbing FlightAware ADS-B (CAD4 / YZZ)
Tue 05:58:32 AM 51.4061 22.5587 120° Southeast 451 519 27,600 896 Climbing FlightAware ADS-B
Tue 05:59:08 AM 51.3688 22.6616 119° Southeast 452 520 28,100 892 Climbing FlightAware ADS-B (EPWA / WAW)
Tue 05:59:46 AM 51.3298 22.7692 120° Southeast 459 528 28,700 835 Climbing FlightAware ADS-B (CAD4 / YZZ)
Tue 06:00:27 AM 51.2853 22.8912 120° Southeast 461 531 29,200 725 Climbing FlightAware ADS-B (CAD4 / YZZ)
Tue 06:01:17 AM 51.2308 23.0399 120° Southeast 471 542 29,800 689 Climbing FlightAware ADS-B (CAD4 / YZZ)
Tue 06:02:29 AM 51.1510 23.2558 120° Southeast 478 550 30,600 629 Climbing FlightAware ADS-B (CAD4 / YZZ)
Tue 06:03:02 AM 51.1142 23.3554 120° Southeast 479 551 30,900 717 Climbing FlightAware ADS-B (CAD4 / YZZ)
Tue 06:04:01 AM 51.0462 23.5378 120° Southeast 483 556 31,700 857 Climbing FlightAware ADS-B (CAD4 / YZZ)
Tue 06:05:22 AM 50.9528 23.7867 120° Southeast 476 548 32,900 865 Climbing FlightAware ADS-B (CAD4 / YZZ)
Tue 06:05:52 AM 50.9222 23.8674 120° Southeast 473 544 33,300 783 Climbing FlightAware ADS-B (CAD4 / YZZ)
Tue 06:06:31 AM 50.8760 23.9892 121° Southeast 473 544 33,800 667 Climbing FlightAware ADS-B (CAD4 / YZZ)
Tue 06:07:04 AM 50.8428 24.0856 116° Southeast 475 547 34,100 529 Climbing FlightAware ADS-B (CAD4 / YZZ)
Tue 06:07:39 AM 50.8226 24.2027 100° East 481 554 34,400 593 Climbing FlightAware ADS-B (CAD4 / YZZ)
Tue 06:08:35 AM 50.8014 24.4006 99° East 481 554 35,000 387 Climbing FlightAware ADS-B (CAD4 / YZZ)
Tue 06:09:12 AM 50.7876 24.5287 99° East 481 554 35,000  Level FlightAware ADS-B (CAD4 / YZZ)
Tue 06:11:00 AM 50.7758 24.8027 94° East  Level Estimated
Tue 06:12:00 AM 50.7690 24.9548 94° East  Level Estimated
Tue 06:13:00 AM 50.7620 25.1069 94° East  Level Estimated
Tue 06:14:00 AM 50.7548 25.2590 94° East  Level Estimated
Tue 06:15:00 AM 50.7474 25.4110 94° East  Level Estimated
Tue 06:16:00 AM 50.7398 25.5630 94° East  Level Estimated
Tue 06:17:00 AM 50.7320 25.7148 95° East  Level Estimated
Tue 06:18:00 AM 50.7240 25.8667 95° East  Level Estimated
Tue 06:19:00 AM 50.7158 26.0185 95° East  Level Estimated
Tue 06:20:00 AM 50.7074 26.1703 95° East  Level Estimated
Tue 06:21:00 AM 50.6988 26.3220 95° East  Level Estimated
Tue 06:22:00 AM 50.6900 26.4736 95° East  Level Estimated
Tue 06:23:00 AM 50.6810 26.6252 95° East  Level Estimated
Tue 06:24:00 AM 50.6718 26.7767 95° East  Level Estimated
Tue 06:25:00 AM 50.6624 26.9282 96° East  Level Estimated
Tue 06:26:00 AM 50.6529 27.0795 96° East  Level Estimated
Tue 06:27:00 AM 50.6431 27.2309 96° East  Level Estimated
Tue 06:28:00 AM 50.6331 27.3822 96° East  Level Estimated
Tue 06:29:00 AM 50.6230 27.5334 96° East  Level Estimated
Tue 06:30:00 AM 50.6126 27.6845 96° East  Level Estimated
Tue 06:31:00 AM 50.6021 27.8356 96° East  Level Estimated
Tue 06:32:00 AM 50.5913 27.9866 96° East  Level Estimated
Tue 06:33:00 AM 50.5804 28.1375 96° East  Level Estimated
Tue 06:34:00 AM 50.5692 28.2884 97° East  Level Estimated
Tue 06:35:00 AM 50.5579 28.4392 97° East  Level Estimated
Tue 06:36:00 AM 50.5464 28.5899 97° East  Level Estimated
Tue 06:37:00 AM 50.5346 28.7406 97° East  Level Estimated
Tue 06:38:00 AM 50.5227 28.8911 97° East  Level Estimated
Tue 06:39:00 AM 50.5106 29.0416 97° East  Level Estimated
Tue 06:40:00 AM 50.4983 29.1921 97° East  Level Estimated
Tue 06:41:00 AM 50.4858 29.3424 97° East  Level Estimated
Tue 06:42:00 AM 50.4731 29.4926 98° East  Level Estimated
Tue 06:43:00 AM 50.4602 29.6428 98° East  Level Estimated
Tue 06:44:00 AM 50.4472 29.7929 98° East  Level Estimated
Tue 06:45:00 AM 50.4339 29.9429 98° East  Level Estimated
Tue 06:46:00 AM 50.4204 30.0928 98° East  Level Estimated
Tue 06:47:00 AM 50.4068 30.2427 98° East  Level Estimated
Tue 06:48:00 AM 50.3929 30.3925 98° East  Level Estimated
Tue 06:49:00 AM 50.3789 30.5421 98° East  Level Estimated
Tue 06:50:00 AM 50.3646 30.6917 98° East  Level Estimated
Tue 06:51:00 AM 50.3502 30.8412 99° East  Level Estimated
Tue 06:52:00 AM 50.3450 30.8947 99° East  Level Estimated
Tue 06:53:00 AM 50.3450 30.8947 North  Level Estimated
Tue 06:54:00 AM 50.3450 30.8947 North  Level Estimated
Tue 06:55:00 AM 50.3450 30.8947 North  Level Estimated
Tue 06:56:00 AM 50.3450 30.8947 North  Level Estimated
Tue 06:57:00 AM 50.3450 30.8947 North  Level Estimated
Tue 06:58:00 AM 50.3450 30.8947 North  Level Estimated
Tue 06:59:00 AM 50.3450 30.8947 North  Level Estimated

Login

Don't have an account? Register now (free) for customized features, flight alerts, and more!